This is the latest recevied weather packets stored in our database for station/object KC9DRE. If no packets are shown the sender has not sent any weather packets the latest 10 day(s).
| Time | Temp. | Humidity | Pressure | Rain* | Wind** | Luminosity | Snow |
|---|---|---|---|---|---|---|---|
| 1778245466 | 14.44° C | 52% | 1016.1 hPa | 0 mm | - | 319 W/m² | - |
| 1778245161 | 15° C | 53% | 1015.9 hPa | 0 mm | - | 304 W/m² | - |
| 1778244858 | 15° C | 51% | 1015.9 hPa | 0 mm | - | 287 W/m² | - |
| 1778244556 | 14.44° C | 53% | 1015.7 hPa | 0 mm | - | 270 W/m² | - |
| 1778244253 | 13.89° C | 55% | 1015.8 hPa | 0 mm | - | 254 W/m² | - |
| 1778243951 | 13.89° C | 55% | 1015.7 hPa | 0 mm | - | 237 W/m² | - |
| 1778243649 | 13.89° C | 53% | 1015.7 hPa | 0 mm | - | 219 W/m² | - |
| 1778243345 | 13.33° C | 57% | 1015.7 hPa | 0 mm | - | 192 W/m² | - |
| 1778243042 | 12.78° C | 60% | 1015.7 hPa | 0 mm | - | 169 W/m² | - |
| 1778242739 | 12.22° C | 61% | 1015.8 hPa | 0 mm | - | 145 W/m² | - |
| 1778242438 | 12.22° C | 60% | 1015.9 hPa | 0 mm | - | 122 W/m² | - |
| 1778242135 | 11.67° C | 62% | 1015.9 hPa | 0 mm | - | 107 W/m² | - |
| 1778241833 | 11.11° C | 64% | 1015.9 hPa | 0 mm | - | 92 W/m² | - |
| 1778241530 | 10.56° C | 63% | 1015.7 hPa | 0 mm | - | 81 W/m² | - |
| 1778241227 | 10.56° C | 64% | 1015.7 hPa | 0 mm | - | 70 W/m² | - |
| 1778240924 | 10° C | 67% | 1015.5 hPa | 0 mm | - | 64 W/m² | - |
| 1778240621 | 8.89° C | 72% | 1015.5 hPa | 0 mm | - | 58 W/m² | - |
| 1778240317 | 8.33° C | 73% | 1015.5 hPa | 0 mm | - | 54 W/m² | - |
| 1778240016 | 6.67° C | 81% | 1015.5 hPa | 0 mm | - | 47 W/m² | - |
| 1778239712 | 5.56° C | 87% | 1015.5 hPa | 0 mm | - | 41 W/m² | - |
| 1778239409 | 5° C | 93% | 1015.5 hPa | 0 mm | - | 26 W/m² | - |
| 1778239105 | 4.44° C | 95% | 1015.5 hPa | 0 mm | - | 22 W/m² | - |
| 1778238803 | 4.44° C | 96% | 1015.4 hPa | 0 mm | - | 20 W/m² | - |
| 1778238500 | 4.44° C | 96% | 1015.4 hPa | 0 mm | - | 17 W/m² | - |
| 1778238198 | 4.44° C | 96% | 1015.3 hPa | 0 mm | - | 14 W/m² | - |
* Rain latest hour (hover to see other rain measurements)
** Current wind speed in m/s (hover to see current wind gust speed)